sensor_id;sensor_type;location;lat;lon;timestamp;temperature;humidity
8463;DHT22;4268;52.506;13.462;2024-03-25T00:00:59;6.50;99.90
8463;DHT22;4268;52.506;13.462;2024-03-25T00:03:25;6.50;99.90
8463;DHT22;4268;52.506;13.462;2024-03-25T00:05:50;6.50;99.90
8463;DHT22;4268;52.506;13.462;2024-03-25T00:08:16;6.50;99.90
8463;DHT22;4268;52.506;13.462;2024-03-25T00:10:41;6.50;99.90
8463;DHT22;4268;52.506;13.462;2024-03-25T00:13:07;6.50;99.90
8463;DHT22;4268;52.506;13.462;2024-03-25T00:15:32;6.40;99.90
8463;DHT22;4268;52.506;13.462;2024-03-25T00:17:59;6.40;99.90
8463;DHT22;4268;52.506;13.462;2024-03-25T00:20:25;6.40;99.90
8463;DHT22;4268;52.506;13.462;2024-03-25T00:22:50;6.40;99.90
8463;DHT22;4268;52.506;13.462;2024-03-25T00:25:16;6.40;99.90
8463;DHT22;4268;52.506;13.462;2024-03-25T00:27:42;6.40;99.90
8463;DHT22;4268;52.506;13.462;2024-03-25T00:30:08;6.40;99.90
8463;DHT22;4268;52.506;13.462;2024-03-25T00:32:35;6.40;99.90
8463;DHT22;4268;52.506;13.462;2024-03-25T00:35:00;6.40;99.90
8463;DHT22;4268;52.506;13.462;2024-03-25T00:37:26;6.40;99.90
8463;DHT22;4268;52.506;13.462;2024-03-25T00:39:51;6.40;99.90
8463;DHT22;4268;52.506;13.462;2024-03-25T00:42:17;6.40;99.90
8463;DHT22;4268;52.506;13.462;2024-03-25T00:44:42;6.40;99.90
8463;DHT22;4268;52.506;13.462;2024-03-25T00:47:08;6.40;99.90
8463;DHT22;4268;52.506;13.462;2024-03-25T00:49:33;6.40;99.90
8463;DHT22;4268;52.506;13.462;2024-03-25T00:52:00;6.40;99.90
8463;DHT22;4268;52.506;13.462;2024-03-25T00:54:25;6.40;99.90
8463;DHT22;4268;52.506;13.462;2024-03-25T00:56:51;6.40;99.90
8463;DHT22;4268;52.506;13.462;2024-03-25T00:59:17;6.30;99.90
8463;DHT22;4268;52.506;13.462;2024-03-25T01:01:42;6.30;99.90
8463;DHT22;4268;52.506;13.462;2024-03-25T01:04:08;6.40;99.90
8463;DHT22;4268;52.506;13.462;2024-03-25T01:06:33;6.40;99.90
8463;DHT22;4268;52.506;13.462;2024-03-25T01:08:59;6.40;99.90
8463;DHT22;4268;52.506;13.462;2024-03-25T01:11:24;6.40;99.90
8463;DHT22;4268;52.506;13.462;2024-03-25T01:13:50;6.40;99.90
8463;DHT22;4268;52.506;13.462;2024-03-25T01:16:16;6.50;99.90
8463;DHT22;4268;52.506;13.462;2024-03-25T01:18:42;6.50;99.90
8463;DHT22;4268;52.506;13.462;2024-03-25T01:21:07;6.50;99.90
8463;DHT22;4268;52.506;13.462;2024-03-25T01:23:33;6.50;99.90
8463;DHT22;4268;52.506;13.462;2024-03-25T01:25:58;6.50;99.90
8463;DHT22;4268;52.506;13.462;2024-03-25T01:28:24;6.50;99.90
8463;DHT22;4268;52.506;13.462;2024-03-25T01:30:49;6.50;99.90
8463;DHT22;4268;52.506;13.462;2024-03-25T01:33:15;6.50;99.90
8463;DHT22;4268;52.506;13.462;2024-03-25T01:35:40;6.50;99.90
8463;DHT22;4268;52.506;13.462;2024-03-25T01:38:06;6.50;99.90
8463;DHT22;4268;52.506;13.462;2024-03-25T01:40:32;6.50;99.90
8463;DHT22;4268;52.506;13.462;2024-03-25T01:43:00;6.50;99.90
8463;DHT22;4268;52.506;13.462;2024-03-25T01:45:31;6.50;99.90
8463;DHT22;4268;52.506;13.462;2024-03-25T01:47:59;6.50;99.90
8463;DHT22;4268;52.506;13.462;2024-03-25T01:50:25;6.50;99.90
8463;DHT22;4268;52.506;13.462;2024-03-25T01:52:52;6.50;99.90
8463;DHT22;4268;52.506;13.462;2024-03-25T01:55:21;6.50;99.90
8463;DHT22;4268;52.506;13.462;2024-03-25T01:57:48;6.60;99.90
8463;DHT22;4268;52.506;13.462;2024-03-25T02:00:14;6.60;99.90
8463;DHT22;4268;52.506;13.462;2024-03-25T02:02:42;6.50;99.90
8463;DHT22;4268;52.506;13.462;2024-03-25T02:05:10;6.60;99.90
8463;DHT22;4268;52.506;13.462;2024-03-25T02:07:36;6.60;99.90
8463;DHT22;4268;52.506;13.462;2024-03-25T02:10:07;6.60;99.90
8463;DHT22;4268;52.506;13.462;2024-03-25T02:12:36;6.60;99.90
8463;DHT22;4268;52.506;13.462;2024-03-25T02:15:02;6.60;99.90
8463;DHT22;4268;52.506;13.462;2024-03-25T02:17:27;6.60;99.90
8463;DHT22;4268;52.506;13.462;2024-03-25T02:19:53;6.50;99.90
8463;DHT22;4268;52.506;13.462;2024-03-25T02:22:19;6.50;99.90
8463;DHT22;4268;52.506;13.462;2024-03-25T02:24:45;6.50;99.90
8463;DHT22;4268;52.506;13.462;2024-03-25T02:27:12;6.40;99.90
8463;DHT22;4268;52.506;13.462;2024-03-25T02:29:41;6.40;99.90
8463;DHT22;4268;52.506;13.462;2024-03-25T02:32:09;6.40;99.90
8463;DHT22;4268;52.506;13.462;2024-03-25T02:34:37;6.40;99.90
8463;DHT22;4268;52.506;13.462;2024-03-25T02:37:03;6.40;99.90
8463;DHT22;4268;52.506;13.462;2024-03-25T02:39:29;6.40;99.90
8463;DHT22;4268;52.506;13.462;2024-03-25T02:41:55;6.40;99.90
8463;DHT22;4268;52.506;13.462;2024-03-25T02:44:21;6.40;99.90
8463;DHT22;4268;52.506;13.462;2024-03-25T02:46:48;6.40;99.90
8463;DHT22;4268;52.506;13.462;2024-03-25T02:49:13;6.30;99.90
8463;DHT22;4268;52.506;13.462;2024-03-25T02:51:39;6.40;99.90
8463;DHT22;4268;52.506;13.462;2024-03-25T02:54:05;6.40;99.90
8463;DHT22;4268;52.506;13.462;2024-03-25T02:56:30;6.30;99.90
8463;DHT22;4268;52.506;13.462;2024-03-25T02:58:56;6.30;99.90
8463;DHT22;4268;52.506;13.462;2024-03-25T03:01:21;6.30;99.90
8463;DHT22;4268;52.506;13.462;2024-03-25T03:03:47;6.30;99.90
8463;DHT22;4268;52.506;13.462;2024-03-25T03:06:12;6.20;99.90
8463;DHT22;4268;52.506;13.462;2024-03-25T03:08:38;6.20;99.90
8463;DHT22;4268;52.506;13.462;2024-03-25T03:11:03;6.20;99.90
8463;DHT22;4268;52.506;13.462;2024-03-25T03:13:29;6.10;99.90
8463;DHT22;4268;52.506;13.462;2024-03-25T03:15:54;6.10;99.90
8463;DHT22;4268;52.506;13.462;2024-03-25T03:18:20;6.10;99.90
8463;DHT22;4268;52.506;13.462;2024-03-25T03:20:45;6.10;99.90
8463;DHT22;4268;52.506;13.462;2024-03-25T03:23:12;6.10;99.90
8463;DHT22;4268;52.506;13.462;2024-03-25T03:25:38;6.10;99.90
8463;DHT22;4268;52.506;13.462;2024-03-25T03:28:04;6.10;99.90
8463;DHT22;4268;52.506;13.462;2024-03-25T03:30:29;6.10;99.90
8463;DHT22;4268;52.506;13.462;2024-03-25T03:32:55;6.10;99.90
8463;DHT22;4268;52.506;13.462;2024-03-25T03:35:21;6.10;99.90
8463;DHT22;4268;52.506;13.462;2024-03-25T03:37:46;6.20;99.90
8463;DHT22;4268;52.506;13.462;2024-03-25T03:40:12;6.20;99.90
8463;DHT22;4268;52.506;13.462;2024-03-25T03:42:37;6.20;99.90
8463;DHT22;4268;52.506;13.462;2024-03-25T03:45:03;6.20;99.90
8463;DHT22;4268;52.506;13.462;2024-03-25T03:47:29;6.20;99.90
8463;DHT22;4268;52.506;13.462;2024-03-25T03:49:54;6.20;99.90
8463;DHT22;4268;52.506;13.462;2024-03-25T03:52:19;6.30;99.90
8463;DHT22;4268;52.506;13.462;2024-03-25T03:54:45;6.30;99.90
8463;DHT22;4268;52.506;13.462;2024-03-25T03:57:10;6.30;99.90
8463;DHT22;4268;52.506;13.462;2024-03-25T03:59:36;6.30;99.90
8463;DHT22;4268;52.506;13.462;2024-03-25T04:02:01;6.30;99.90
8463;DHT22;4268;52.506;13.462;2024-03-25T04:04:28;6.20;99.90
8463;DHT22;4268;52.506;13.462;2024-03-25T04:06:53;6.30;99.90
8463;DHT22;4268;52.506;13.462;2024-03-25T04:09:19;6.30;99.90
8463;DHT22;4268;52.506;13.462;2024-03-25T04:11:45;6.30;99.90
8463;DHT22;4268;52.506;13.462;2024-03-25T04:14:10;6.20;99.90
8463;DHT22;4268;52.506;13.462;2024-03-25T04:16:36;6.20;99.90
8463;DHT22;4268;52.506;13.462;2024-03-25T04:19:01;6.20;99.90
8463;DHT22;4268;52.506;13.462;2024-03-25T04:21:27;6.20;99.90
8463;DHT22;4268;52.506;13.462;2024-03-25T04:23:53;6.20;99.90
8463;DHT22;4268;52.506;13.462;2024-03-25T04:26:19;6.20;99.90
8463;DHT22;4268;52.506;13.462;2024-03-25T04:28:44;6.20;99.90
8463;DHT22;4268;52.506;13.462;2024-03-25T04:31:10;6.20;99.90
8463;DHT22;4268;52.506;13.462;2024-03-25T04:33:35;6.20;99.90
8463;DHT22;4268;52.506;13.462;2024-03-25T04:36:01;6.20;99.90
8463;DHT22;4268;52.506;13.462;2024-03-25T04:38:26;6.20;99.90
8463;DHT22;4268;52.506;13.462;2024-03-25T04:40:52;6.20;99.90
8463;DHT22;4268;52.506;13.462;2024-03-25T04:43:17;6.20;99.90
8463;DHT22;4268;52.506;13.462;2024-03-25T04:45:43;6.20;99.90
8463;DHT22;4268;52.506;13.462;2024-03-25T04:48:08;6.20;99.90
8463;DHT22;4268;52.506;13.462;2024-03-25T04:50:35;6.20;99.90
8463;DHT22;4268;52.506;13.462;2024-03-25T04:53:00;6.20;99.90
8463;DHT22;4268;52.506;13.462;2024-03-25T04:55:26;6.20;99.90
8463;DHT22;4268;52.506;13.462;2024-03-25T04:57:51;6.20;99.90
8463;DHT22;4268;52.506;13.462;2024-03-25T05:00:18;6.20;99.90
8463;DHT22;4268;52.506;13.462;2024-03-25T05:02:43;6.20;99.90
8463;DHT22;4268;52.506;13.462;2024-03-25T05:05:09;6.20;99.90
8463;DHT22;4268;52.506;13.462;2024-03-25T05:07:35;6.20;99.90
8463;DHT22;4268;52.506;13.462;2024-03-25T05:10:00;6.20;99.90
8463;DHT22;4268;52.506;13.462;2024-03-25T05:12:27;6.20;99.90
8463;DHT22;4268;52.506;13.462;2024-03-25T05:14:58;6.20;99.90
8463;DHT22;4268;52.506;13.462;2024-03-25T05:17:23;6.20;99.90
8463;DHT22;4268;52.506;13.462;2024-03-25T05:19:49;6.60;99.90
8463;DHT22;4268;52.506;13.462;2024-03-25T05:22:16;6.20;99.90
8463;DHT22;4268;52.506;13.462;2024-03-25T05:24:41;6.30;99.90
8463;DHT22;4268;52.506;13.462;2024-03-25T05:27:07;6.30;99.90
8463;DHT22;4268;52.506;13.462;2024-03-25T05:29:32;6.30;99.90
8463;DHT22;4268;52.506;13.462;2024-03-25T05:32:00;6.30;99.90
8463;DHT22;4268;52.506;13.462;2024-03-25T05:34:26;6.30;99.90
8463;DHT22;4268;52.506;13.462;2024-03-25T05:36:52;6.30;99.90
8463;DHT22;4268;52.506;13.462;2024-03-25T05:39:18;6.30;99.90
8463;DHT22;4268;52.506;13.462;2024-03-25T05:41:44;6.30;99.90
8463;DHT22;4268;52.506;13.462;2024-03-25T05:44:09;6.40;99.90
8463;DHT22;4268;52.506;13.462;2024-03-25T05:46:35;6.30;99.90
8463;DHT22;4268;52.506;13.462;2024-03-25T05:49:04;6.40;99.90
8463;DHT22;4268;52.506;13.462;2024-03-25T05:51:30;6.30;99.90
8463;DHT22;4268;52.506;13.462;2024-03-25T05:53:56;6.30;99.90
8463;DHT22;4268;52.506;13.462;2024-03-25T05:56:21;6.40;99.90
8463;DHT22;4268;52.506;13.462;2024-03-25T05:58:47;6.40;99.90
8463;DHT22;4268;52.506;13.462;2024-03-25T06:01:13;6.40;99.90
8463;DHT22;4268;52.506;13.462;2024-03-25T06:03:38;6.40;99.90
8463;DHT22;4268;52.506;13.462;2024-03-25T06:06:04;6.40;99.90
8463;DHT22;4268;52.506;13.462;2024-03-25T06:08:29;6.40;99.90
8463;DHT22;4268;52.506;13.462;2024-03-25T06:11:00;6.40;99.90
8463;DHT22;4268;52.506;13.462;2024-03-25T06:13:26;6.50;99.90
8463;DHT22;4268;52.506;13.462;2024-03-25T06:15:52;6.50;99.90
8463;DHT22;4268;52.506;13.462;2024-03-25T06:18:17;6.40;99.90
8463;DHT22;4268;52.506;13.462;2024-03-25T06:20:43;6.50;99.90
8463;DHT22;4268;52.506;13.462;2024-03-25T06:23:08;6.50;99.90
8463;DHT22;4268;52.506;13.462;2024-03-25T06:25:34;6.50;99.90
8463;DHT22;4268;52.506;13.462;2024-03-25T06:28:01;6.60;99.90
8463;DHT22;4268;52.506;13.462;2024-03-25T06:30:26;6.50;99.90
8463;DHT22;4268;52.506;13.462;2024-03-25T06:33:10;6.60;99.90
8463;DHT22;4268;52.506;13.462;2024-03-25T06:35:54;6.60;99.90
8463;DHT22;4268;52.506;13.462;2024-03-25T06:38:20;6.60;99.90
8463;DHT22;4268;52.506;13.462;2024-03-25T06:40:46;6.60;99.90
8463;DHT22;4268;52.506;13.462;2024-03-25T06:43:12;6.60;99.90
8463;DHT22;4268;52.506;13.462;2024-03-25T06:45:37;6.60;99.90
8463;DHT22;4268;52.506;13.462;2024-03-25T06:48:03;6.60;99.90
8463;DHT22;4268;52.506;13.462;2024-03-25T06:50:28;6.60;99.90
8463;DHT22;4268;52.506;13.462;2024-03-25T06:52:54;6.70;99.90
8463;DHT22;4268;52.506;13.462;2024-03-25T06:55:20;6.70;99.90
8463;DHT22;4268;52.506;13.462;2024-03-25T06:57:48;6.70;99.90
8463;DHT22;4268;52.506;13.462;2024-03-25T07:00:14;6.70;99.90
8463;DHT22;4268;52.506;13.462;2024-03-25T07:02:40;6.70;99.90
8463;DHT22;4268;52.506;13.462;2024-03-25T07:05:06;6.60;99.90
8463;DHT22;4268;52.506;13.462;2024-03-25T07:07:32;6.60;99.90
8463;DHT22;4268;52.506;13.462;2024-03-25T07:09:57;6.60;99.90
8463;DHT22;4268;52.506;13.462;2024-03-25T07:12:23;6.60;99.90
8463;DHT22;4268;52.506;13.462;2024-03-25T07:14:49;6.60;99.90
8463;DHT22;4268;52.506;13.462;2024-03-25T07:17:14;6.60;99.90
8463;DHT22;4268;52.506;13.462;2024-03-25T07:19:40;6.60;99.90
8463;DHT22;4268;52.506;13.462;2024-03-25T07:22:05;6.60;99.90
8463;DHT22;4268;52.506;13.462;2024-03-25T07:24:31;6.60;99.90
8463;DHT22;4268;52.506;13.462;2024-03-25T07:26:56;6.60;99.90
8463;DHT22;4268;52.506;13.462;2024-03-25T07:29:22;6.70;99.90
8463;DHT22;4268;52.506;13.462;2024-03-25T07:31:47;6.70;99.90
8463;DHT22;4268;52.506;13.462;2024-03-25T07:34:13;6.70;99.90
8463;DHT22;4268;52.506;13.462;2024-03-25T07:36:38;6.70;99.90
8463;DHT22;4268;52.506;13.462;2024-03-25T07:39:04;6.70;99.90
8463;DHT22;4268;52.506;13.462;2024-03-25T07:41:31;6.80;99.90
8463;DHT22;4268;52.506;13.462;2024-03-25T07:43:57;6.80;99.90
8463;DHT22;4268;52.506;13.462;2024-03-25T07:46:22;6.80;99.90
8463;DHT22;4268;52.506;13.462;2024-03-25T07:48:48;6.80;99.90
8463;DHT22;4268;52.506;13.462;2024-03-25T07:51:13;6.70;99.90
8463;DHT22;4268;52.506;13.462;2024-03-25T07:53:39;6.80;99.90
8463;DHT22;4268;52.506;13.462;2024-03-25T07:56:05;6.90;99.90
8463;DHT22;4268;52.506;13.462;2024-03-25T07:58:30;6.90;99.90
8463;DHT22;4268;52.506;13.462;2024-03-25T08:00:56;6.90;99.90
8463;DHT22;4268;52.506;13.462;2024-03-25T08:03:22;6.80;99.90
8463;DHT22;4268;52.506;13.462;2024-03-25T08:05:48;6.80;99.90
8463;DHT22;4268;52.506;13.462;2024-03-25T08:08:14;6.80;99.90
8463;DHT22;4268;52.506;13.462;2024-03-25T08:10:39;6.80;99.90
8463;DHT22;4268;52.506;13.462;2024-03-25T08:13:05;6.80;99.90
8463;DHT22;4268;52.506;13.462;2024-03-25T08:15:30;6.80;99.90
8463;DHT22;4268;52.506;13.462;2024-03-25T08:17:56;6.80;99.90
8463;DHT22;4268;52.506;13.462;2024-03-25T08:20:21;6.80;99.90
8463;DHT22;4268;52.506;13.462;2024-03-25T08:22:48;6.90;99.90
8463;DHT22;4268;52.506;13.462;2024-03-25T08:25:14;6.90;99.90
8463;DHT22;4268;52.506;13.462;2024-03-25T08:27:40;7.00;99.90
8463;DHT22;4268;52.506;13.462;2024-03-25T08:30:06;7.20;99.90
8463;DHT22;4268;52.506;13.462;2024-03-25T08:32:31;7.50;99.90
8463;DHT22;4268;52.506;13.462;2024-03-25T08:34:58;7.70;99.90
8463;DHT22;4268;52.506;13.462;2024-03-25T08:37:23;7.80;99.90
8463;DHT22;4268;52.506;13.462;2024-03-25T08:39:49;7.80;99.90
8463;DHT22;4268;52.506;13.462;2024-03-25T08:42:15;7.80;99.90
8463;DHT22;4268;52.506;13.462;2024-03-25T08:44:40;7.80;99.90
8463;DHT22;4268;52.506;13.462;2024-03-25T08:47:06;7.90;99.90
8463;DHT22;4268;52.506;13.462;2024-03-25T08:49:31;7.90;99.90
8463;DHT22;4268;52.506;13.462;2024-03-25T08:51:57;7.80;99.90
8463;DHT22;4268;52.506;13.462;2024-03-25T08:54:22;7.80;99.90
8463;DHT22;4268;52.506;13.462;2024-03-25T08:56:48;7.70;99.90
8463;DHT22;4268;52.506;13.462;2024-03-25T08:59:13;7.70;99.90
8463;DHT22;4268;52.506;13.462;2024-03-25T09:01:39;7.70;99.90
8463;DHT22;4268;52.506;13.462;2024-03-25T09:04:04;7.70;99.90
8463;DHT22;4268;52.506;13.462;2024-03-25T09:06:30;7.70;99.90
8463;DHT22;4268;52.506;13.462;2024-03-25T09:08:55;7.70;99.90
8463;DHT22;4268;52.506;13.462;2024-03-25T09:11:39;7.70;99.90
8463;DHT22;4268;52.506;13.462;2024-03-25T09:14:05;7.80;99.90
8463;DHT22;4268;52.506;13.462;2024-03-25T09:16:31;7.80;99.90
8463;DHT22;4268;52.506;13.462;2024-03-25T09:18:57;7.90;99.90
8463;DHT22;4268;52.506;13.462;2024-03-25T09:21:23;8.00;99.90
8463;DHT22;4268;52.506;13.462;2024-03-25T09:23:50;8.00;99.90
8463;DHT22;4268;52.506;13.462;2024-03-25T09:26:15;8.00;99.90
8463;DHT22;4268;52.506;13.462;2024-03-25T09:28:41;8.00;99.90
8463;DHT22;4268;52.506;13.462;2024-03-25T09:31:06;8.00;99.90
8463;DHT22;4268;52.506;13.462;2024-03-25T09:33:32;8.10;99.90
8463;DHT22;4268;52.506;13.462;2024-03-25T09:35:57;8.10;99.90
8463;DHT22;4268;52.506;13.462;2024-03-25T09:38:23;8.10;99.90
8463;DHT22;4268;52.506;13.462;2024-03-25T09:40:52;8.10;99.90
8463;DHT22;4268;52.506;13.462;2024-03-25T09:43:25;8.00;99.90
8463;DHT22;4268;52.506;13.462;2024-03-25T09:45:51;8.00;99.90
8463;DHT22;4268;52.506;13.462;2024-03-25T09:48:19;8.10;99.90
8463;DHT22;4268;52.506;13.462;2024-03-25T09:50:47;8.20;99.90
8463;DHT22;4268;52.506;13.462;2024-03-25T09:53:13;8.20;99.90
8463;DHT22;4268;52.506;13.462;2024-03-25T09:55:39;8.20;99.90
8463;DHT22;4268;52.506;13.462;2024-03-25T09:58:05;8.20;99.90
8463;DHT22;4268;52.506;13.462;2024-03-25T10:00:31;8.10;99.90
8463;DHT22;4268;52.506;13.462;2024-03-25T10:02:56;8.20;99.90
8463;DHT22;4268;52.506;13.462;2024-03-25T10:05:22;8.40;99.90
8463;DHT22;4268;52.506;13.462;2024-03-25T10:07:47;8.70;99.90
8463;DHT22;4268;52.506;13.462;2024-03-25T10:10:13;9.00;99.90
8463;DHT22;4268;52.506;13.462;2024-03-25T10:12:39;9.20;99.90
8463;DHT22;4268;52.506;13.462;2024-03-25T10:15:06;9.30;99.90
8463;DHT22;4268;52.506;13.462;2024-03-25T10:17:32;9.60;99.90
8463;DHT22;4268;52.506;13.462;2024-03-25T10:19:57;9.80;99.90
8463;DHT22;4268;52.506;13.462;2024-03-25T10:22:23;9.90;99.90
8463;DHT22;4268;52.506;13.462;2024-03-25T10:24:49;9.90;99.90
8463;DHT22;4268;52.506;13.462;2024-03-25T10:27:22;10.00;99.90
8463;DHT22;4268;52.506;13.462;2024-03-25T10:29:54;10.00;99.90
8463;DHT22;4268;52.506;13.462;2024-03-25T10:32:22;10.00;99.90
8463;DHT22;4268;52.506;13.462;2024-03-25T10:34:50;9.90;99.90
8463;DHT22;4268;52.506;13.462;2024-03-25T10:37:17;9.90;99.90
8463;DHT22;4268;52.506;13.462;2024-03-25T10:39:50;9.80;99.90
8463;DHT22;4268;52.506;13.462;2024-03-25T10:42:20;9.70;99.90
8463;DHT22;4268;52.506;13.462;2024-03-25T10:44:47;9.70;99.90
8463;DHT22;4268;52.506;13.462;2024-03-25T10:47:36;9.60;99.90
8463;DHT22;4268;52.506;13.462;2024-03-25T10:50:07;9.60;99.90
8463;DHT22;4268;52.506;13.462;2024-03-25T10:52:36;9.80;99.90
8463;DHT22;4268;52.506;13.462;2024-03-25T10:55:03;9.80;99.90
8463;DHT22;4268;52.506;13.462;2024-03-25T10:57:29;10.00;99.90
8463;DHT22;4268;52.506;13.462;2024-03-25T10:59:55;10.20;99.90
8463;DHT22;4268;52.506;13.462;2024-03-25T11:02:22;10.30;99.90
8463;DHT22;4268;52.506;13.462;2024-03-25T11:04:48;10.30;99.90
8463;DHT22;4268;52.506;13.462;2024-03-25T11:07:16;10.40;99.90
8463;DHT22;4268;52.506;13.462;2024-03-25T11:09:42;10.50;99.90
8463;DHT22;4268;52.506;13.462;2024-03-25T11:12:12;10.60;99.90
8463;DHT22;4268;52.506;13.462;2024-03-25T11:14:38;10.60;99.90
8463;DHT22;4268;52.506;13.462;2024-03-25T11:17:16;10.80;99.90
8463;DHT22;4268;52.506;13.462;2024-03-25T11:19:42;10.90;99.90
8463;DHT22;4268;52.506;13.462;2024-03-25T11:22:09;11.10;99.90
8463;DHT22;4268;52.506;13.462;2024-03-25T11:24:35;11.40;99.90
8463;DHT22;4268;52.506;13.462;2024-03-25T11:27:07;11.60;99.90
8463;DHT22;4268;52.506;13.462;2024-03-25T11:29:33;11.60;99.90
8463;DHT22;4268;52.506;13.462;2024-03-25T11:32:04;11.60;99.90
8463;DHT22;4268;52.506;13.462;2024-03-25T11:34:29;11.50;99.90
8463;DHT22;4268;52.506;13.462;2024-03-25T11:36:55;11.40;99.90
8463;DHT22;4268;52.506;13.462;2024-03-25T11:39:23;11.50;99.90
8463;DHT22;4268;52.506;13.462;2024-03-25T11:41:49;11.60;99.90
8463;DHT22;4268;52.506;13.462;2024-03-25T11:44:14;11.70;99.90
8463;DHT22;4268;52.506;13.462;2024-03-25T11:46:42;11.70;99.90
8463;DHT22;4268;52.506;13.462;2024-03-25T11:49:13;11.70;99.90
8463;DHT22;4268;52.506;13.462;2024-03-25T11:51:40;11.70;99.90
8463;DHT22;4268;52.506;13.462;2024-03-25T11:54:07;11.60;99.90
8463;DHT22;4268;52.506;13.462;2024-03-25T11:56:32;11.60;99.90
8463;DHT22;4268;52.506;13.462;2024-03-25T11:59:01;11.60;99.90
8463;DHT22;4268;52.506;13.462;2024-03-25T12:01:28;11.40;99.90
8463;DHT22;4268;52.506;13.462;2024-03-25T12:03:54;11.30;99.90
8463;DHT22;4268;52.506;13.462;2024-03-25T12:06:20;11.20;99.90
8463;DHT22;4268;52.506;13.462;2024-03-25T12:08:45;11.10;99.90
8463;DHT22;4268;52.506;13.462;2024-03-25T12:11:31;11.00;99.90
8463;DHT22;4268;52.506;13.462;2024-03-25T12:13:58;10.90;99.90
8463;DHT22;4268;52.506;13.462;2024-03-25T12:16:24;10.90;99.90
8463;DHT22;4268;52.506;13.462;2024-03-25T12:18:50;11.00;99.90
8463;DHT22;4268;52.506;13.462;2024-03-25T12:21:15;11.00;99.90
8463;DHT22;4268;52.506;13.462;2024-03-25T12:23:42;11.10;99.90
8463;DHT22;4268;52.506;13.462;2024-03-25T12:26:08;11.40;99.90
8463;DHT22;4268;52.506;13.462;2024-03-25T12:28:34;11.60;99.90
8463;DHT22;4268;52.506;13.462;2024-03-25T12:31:02;11.90;99.90
8463;DHT22;4268;52.506;13.462;2024-03-25T12:33:28;11.90;99.90
8463;DHT22;4268;52.506;13.462;2024-03-25T12:35:53;11.70;99.30
8463;DHT22;4268;52.506;13.462;2024-03-25T12:38:26;11.40;99.50
8463;DHT22;4268;52.506;13.462;2024-03-25T12:40:54;11.10;99.90
8463;DHT22;4268;52.506;13.462;2024-03-25T12:43:19;11.00;99.90
8463;DHT22;4268;52.506;13.462;2024-03-25T12:45:45;10.90;99.90
8463;DHT22;4268;52.506;13.462;2024-03-25T12:48:11;11.00;99.90
8463;DHT22;4268;52.506;13.462;2024-03-25T12:50:37;10.90;99.90
8463;DHT22;4268;52.506;13.462;2024-03-25T12:53:03;10.90;99.90
8463;DHT22;4268;52.506;13.462;2024-03-25T12:55:30;10.90;99.90
8463;DHT22;4268;52.506;13.462;2024-03-25T12:57:55;10.90;99.90
8463;DHT22;4268;52.506;13.462;2024-03-25T13:00:21;10.90;99.90
8463;DHT22;4268;52.506;13.462;2024-03-25T13:02:46;10.90;99.90
8463;DHT22;4268;52.506;13.462;2024-03-25T13:05:12;10.90;99.90
8463;DHT22;4268;52.506;13.462;2024-03-25T13:07:38;10.80;99.40
8463;DHT22;4268;52.506;13.462;2024-03-25T13:10:03;10.80;99.10
8463;DHT22;4268;52.506;13.462;2024-03-25T13:12:30;10.80;99.00
8463;DHT22;4268;52.506;13.462;2024-03-25T13:14:56;10.80;98.80
8463;DHT22;4268;52.506;13.462;2024-03-25T13:17:22;10.90;98.90
8463;DHT22;4268;52.506;13.462;2024-03-25T13:19:48;10.90;98.20
8463;DHT22;4268;52.506;13.462;2024-03-25T13:22:13;10.90;98.30
8463;DHT22;4268;52.506;13.462;2024-03-25T13:24:39;10.90;98.10
8463;DHT22;4268;52.506;13.462;2024-03-25T13:27:04;11.10;98.40
8463;DHT22;4268;52.506;13.462;2024-03-25T13:29:30;11.10;97.90
8463;DHT22;4268;52.506;13.462;2024-03-25T13:31:56;11.10;97.90
8463;DHT22;4268;52.506;13.462;2024-03-25T13:34:22;11.20;98.20
8463;DHT22;4268;52.506;13.462;2024-03-25T13:36:47;11.20;98.10
8463;DHT22;4268;52.506;13.462;2024-03-25T13:39:13;11.20;97.90
8463;DHT22;4268;52.506;13.462;2024-03-25T13:41:38;11.30;97.70
8463;DHT22;4268;52.506;13.462;2024-03-25T13:44:04;11.40;97.90
8463;DHT22;4268;52.506;13.462;2024-03-25T13:46:29;11.50;98.20
8463;DHT22;4268;52.506;13.462;2024-03-25T13:48:55;11.50;97.20
8463;DHT22;4268;52.506;13.462;2024-03-25T13:51:20;11.60;96.90
8463;DHT22;4268;52.506;13.462;2024-03-25T13:53:46;11.60;96.20
8463;DHT22;4268;52.506;13.462;2024-03-25T13:56:12;11.60;96.00
8463;DHT22;4268;52.506;13.462;2024-03-25T13:58:37;11.80;96.30
8463;DHT22;4268;52.506;13.462;2024-03-25T14:01:03;12.10;96.30
8463;DHT22;4268;52.506;13.462;2024-03-25T14:03:28;12.20;95.60
8463;DHT22;4268;52.506;13.462;2024-03-25T14:05:54;12.20;95.40
8463;DHT22;4268;52.506;13.462;2024-03-25T14:08:19;12.00;95.50
8463;DHT22;4268;52.506;13.462;2024-03-25T14:10:59;14.00;96.30
8463;DHT22;4268;52.506;13.462;2024-03-25T14:13:25;11.90;95.30
8463;DHT22;4268;52.506;13.462;2024-03-25T14:15:51;9.50;94.80
8463;DHT22;4268;52.506;13.462;2024-03-25T14:18:18;12.90;95.20
8463;DHT22;4268;52.506;13.462;2024-03-25T14:20:44;11.80;94.30
8463;DHT22;4268;52.506;13.462;2024-03-25T14:23:10;11.80;93.80
8463;DHT22;4268;52.506;13.462;2024-03-25T14:25:35;11.70;94.00
8463;DHT22;4268;52.506;13.462;2024-03-25T14:28:01;11.70;93.70
8463;DHT22;4268;52.506;13.462;2024-03-25T14:30:26;11.60;93.70
8463;DHT22;4268;52.506;13.462;2024-03-25T14:32:53;14.10;94.70
8463;DHT22;4268;52.506;13.462;2024-03-25T14:35:20;11.50;93.80
8463;DHT22;4268;52.506;13.462;2024-03-25T14:37:46;11.40;94.00
8463;DHT22;4268;52.506;13.462;2024-03-25T14:40:12;11.30;94.60
8463;DHT22;4268;52.506;13.462;2024-03-25T14:42:38;11.30;95.00
8463;DHT22;4268;52.506;13.462;2024-03-25T14:45:05;11.20;95.20
8463;DHT22;4268;52.506;13.462;2024-03-25T14:47:31;11.10;95.20
8463;DHT22;4268;52.506;13.462;2024-03-25T14:49:56;11.00;95.50
8463;DHT22;4268;52.506;13.462;2024-03-25T14:52:23;10.90;96.50
8463;DHT22;4268;52.506;13.462;2024-03-25T14:54:48;10.80;97.30
8463;DHT22;4268;52.506;13.462;2024-03-25T14:57:14;10.70;97.70
8463;DHT22;4268;52.506;13.462;2024-03-25T14:59:39;10.70;98.20
8463;DHT22;4268;52.506;13.462;2024-03-25T15:02:05;10.70;98.30
8463;DHT22;4268;52.506;13.462;2024-03-25T15:04:31;10.70;98.80
8463;DHT22;4268;52.506;13.462;2024-03-25T15:06:58;10.70;99.20
8463;DHT22;4268;52.506;13.462;2024-03-25T15:09:24;10.70;99.20
8463;DHT22;4268;52.506;13.462;2024-03-25T15:11:49;10.60;99.20
8463;DHT22;4268;52.506;13.462;2024-03-25T15:14:15;10.50;98.80
8463;DHT22;4268;52.506;13.462;2024-03-25T15:16:40;10.60;99.20
8463;DHT22;4268;52.506;13.462;2024-03-25T15:19:06;10.70;99.00
8463;DHT22;4268;52.506;13.462;2024-03-25T15:21:33;10.80;98.90
8463;DHT22;4268;52.506;13.462;2024-03-25T15:23:59;10.80;98.60
8463;DHT22;4268;52.506;13.462;2024-03-25T15:26:24;10.90;98.60
8463;DHT22;4268;52.506;13.462;2024-03-25T15:28:50;10.80;98.80
8463;DHT22;4268;52.506;13.462;2024-03-25T15:31:15;10.60;99.10
8463;DHT22;4268;52.506;13.462;2024-03-25T15:33:41;10.50;99.10
8463;DHT22;4268;52.506;13.462;2024-03-25T15:36:07;10.40;99.10
8463;DHT22;4268;52.506;13.462;2024-03-25T15:38:32;10.20;99.40
8463;DHT22;4268;52.506;13.462;2024-03-25T15:40:58;10.00;99.90
8463;DHT22;4268;52.506;13.462;2024-03-25T15:43:24;9.90;99.90
8463;DHT22;4268;52.506;13.462;2024-03-25T15:45:54;9.70;99.90
8463;DHT22;4268;52.506;13.462;2024-03-25T15:48:20;9.60;99.90
8463;DHT22;4268;52.506;13.462;2024-03-25T15:50:45;9.50;99.90